Time;durP1;ratioP1;P1;durP2;ratioP2;P2;SDS_P1;SDS_P2;PMS_P1;PMS_P2;Temp;Humidity;BMP_temperature;BMP_pressure;BME280_temperature;BME280_humidity;BME280_pressure;Samples;Min_cycle;Max_cycle;Signal;HPM_P1;HPM_P2
2023/09/02 00:01:47;;;;;;;;;;;16.70;96.70;;;;;;5007694;28;19921;-71
2023/09/02 00:04:13;;;;;;;;;;;16.70;96.60;;;;;;5008596;28;20007;-71
2023/09/02 00:06:38;;;;;;;;;;;16.70;96.70;;;;;;5006290;28;19999;-71
2023/09/02 00:09:04;;;;;;;;;;;16.70;96.60;;;;;;5007801;28;19996;-71
2023/09/02 00:11:29;;;;;;;;;;;16.70;96.60;;;;;;5007534;28;20377;-71
2023/09/02 00:13:55;;;;;;;;;;;16.70;96.60;;;;;;5007851;28;19914;-71
2023/09/02 00:16:20;;;;;;;;;;;16.70;96.60;;;;;;5006875;28;19964;-71
2023/09/02 00:18:46;;;;;;;;;;;16.70;96.70;;;;;;5007216;28;20346;-71
2023/09/02 00:21:12;;;;;;;;;;;16.70;96.60;;;;;;5007836;28;19919;-71
2023/09/02 00:23:41;;;;;;;;;;;16.70;96.70;;;;;;5008119;28;20004;-71
2023/09/02 00:26:06;;;;;;;;;;;16.70;96.70;;;;;;5007523;28;19921;-71
2023/09/02 00:28:32;;;;;;;;;;;16.70;96.70;;;;;;5007936;28;19920;-71
2023/09/02 00:30:57;;;;;;;;;;;16.70;96.70;;;;;;5007311;28;19917;-71
2023/09/02 00:33:23;;;;;;;;;;;16.70;96.70;;;;;;5008320;28;19909;-71
2023/09/02 00:35:49;;;;;;;;;;;16.70;96.70;;;;;;5007884;28;20259;-71
2023/09/02 00:38:15;;;;;;;;;;;16.70;96.60;;;;;;5008263;28;19914;-71
2023/09/02 00:40:42;;;;;;;;;;;16.70;96.70;;;;;;5007889;28;20565;-71
2023/09/02 00:43:07;;;;;;;;;;;16.70;96.60;;;;;;5007189;28;20393;-71
2023/09/02 00:45:34;;;;;;;;;;;16.70;96.70;;;;;;5007558;28;19913;-71
2023/09/02 00:48:00;;;;;;;;;;;16.70;96.70;;;;;;5007324;28;19939;-71
2023/09/02 00:50:26;;;;;;;;;;;16.70;96.60;;;;;;5007518;28;19909;-71
2023/09/02 00:52:51;;;;;;;;;;;16.70;96.60;;;;;;5005935;28;19913;-71
2023/09/02 00:55:17;;;;;;;;;;;16.70;96.60;;;;;;5008068;28;19914;-71
2023/09/02 00:57:43;;;;;;;;;;;16.70;96.70;;;;;;5007923;28;20347;-71
2023/09/02 01:00:09;;;;;;;;;;;16.70;96.60;;;;;;5004253;28;20584;-71
2023/09/02 01:02:36;;;;;;;;;;;16.70;96.60;;;;;;5007185;28;19921;-71
2023/09/02 01:05:02;;;;;;;;;;;16.70;96.60;;;;;;5006950;28;19957;-71
2023/09/02 01:07:28;;;;;;;;;;;16.70;96.60;;;;;;5000929;28;19931;-71
2023/09/02 01:09:54;;;;;;;;;;;16.70;96.60;;;;;;5005302;28;19920;-71
2023/09/02 01:12:20;;;;;;;;;;;16.60;96.60;;;;;;5006797;28;19909;-70
2023/09/02 01:14:45;;;;;;;;;;;16.70;96.60;;;;;;5006966;28;19913;-71
2023/09/02 01:17:11;;;;;;;;;;;16.60;96.60;;;;;;5006105;28;19921;-71
2023/09/02 01:19:37;;;;;;;;;;;16.60;96.60;;;;;;5005842;28;19949;-71
2023/09/02 01:22:03;;;;;;;;;;;16.60;96.70;;;;;;5007083;28;20611;-71
2023/09/02 01:24:58;;;;;;;;;;;16.60;96.60;;;;;;5008453;28;19917;-71
2023/09/02 01:27:42;;;;;;;;;;;16.60;96.70;;;;;;5002552;28;19910;-71
2023/09/02 01:30:11;;;;;;;;;;;16.60;96.70;;;;;;5009741;28;19921;-71
2023/09/02 01:32:40;;;;;;;;;;;16.70;96.60;;;;;;5010959;28;20001;-71
2023/09/02 01:35:06;;;;;;;;;;;16.70;96.70;;;;;;5010689;28;20000;-71
2023/09/02 01:37:38;;;;;;;;;;;16.60;96.70;;;;;;5011171;28;19918;-71
2023/09/02 01:40:05;;;;;;;;;;;16.60;96.70;;;;;;5009340;28;20693;-70
2023/09/02 01:42:32;;;;;;;;;;;16.60;96.70;;;;;;5009038;28;19926;-71
2023/09/02 01:44:57;;;;;;;;;;;16.60;96.70;;;;;;5006464;28;19909;-71
2023/09/02 01:47:23;;;;;;;;;;;16.70;96.80;;;;;;5009578;28;19916;-71
2023/09/02 01:49:49;;;;;;;;;;;16.60;96.70;;;;;;5010776;28;19925;-71
2023/09/02 01:52:15;;;;;;;;;;;16.60;96.70;;;;;;5009292;28;19913;-71
2023/09/02 01:54:41;;;;;;;;;;;16.60;96.70;;;;;;5011045;28;19917;-70
2023/09/02 01:57:07;;;;;;;;;;;16.60;96.80;;;;;;5010287;28;19914;-70
2023/09/02 01:59:32;;;;;;;;;;;16.60;96.80;;;;;;5009588;28;20390;-71
2023/09/02 02:01:59;;;;;;;;;;;16.70;96.80;;;;;;5010193;28;19916;-71
2023/09/02 02:04:30;;;;;;;;;;;16.60;96.70;;;;;;5010812;28;19913;-71
2023/09/02 02:06:59;;;;;;;;;;;16.60;96.70;;;;;;5003266;28;20460;-71
2023/09/02 02:09:38;;;;;;;;;;;16.60;96.70;;;;;;5010732;28;19913;-70
2023/09/02 02:12:05;;;;;;;;;;;16.70;96.70;;;;;;5010051;28;19913;-70
2023/09/02 02:14:32;;;;;;;;;;;16.60;96.80;;;;;;5008940;28;19933;-71
2023/09/02 02:16:58;;;;;;;;;;;16.60;96.90;;;;;;5010209;28;19992;-71
2023/09/02 02:19:23;;;;;;;;;;;16.60;96.80;;;;;;5010672;28;20410;-70
2023/09/02 02:21:49;;;;;;;;;;;16.60;96.90;;;;;;5009729;28;20351;-71
2023/09/02 02:24:14;;;;;;;;;;;16.60;96.80;;;;;;5010350;28;19975;-71
2023/09/02 02:26:40;;;;;;;;;;;16.60;96.80;;;;;;5010163;28;19913;-71
2023/09/02 02:29:05;;;;;;;;;;;16.60;96.80;;;;;;5009710;28;19922;-71
2023/09/02 02:31:33;;;;;;;;;;;16.60;96.80;;;;;;5008423;28;19921;-71
2023/09/02 02:33:58;;;;;;;;;;;16.60;96.80;;;;;;5009468;28;19972;-71
2023/09/02 02:36:24;;;;;;;;;;;16.60;96.80;;;;;;5008877;28;20347;-71
2023/09/02 02:38:49;;;;;;;;;;;16.60;96.80;;;;;;5009517;28;19917;-71
2023/09/02 02:41:15;;;;;;;;;;;16.60;96.80;;;;;;5009862;28;19931;-70
2023/09/02 02:43:40;;;;;;;;;;;16.60;96.80;;;;;;5008346;28;19921;-71
2023/09/02 02:46:06;;;;;;;;;;;16.60;96.80;;;;;;5008110;28;20549;-71
2023/09/02 02:48:31;;;;;;;;;;;16.60;96.80;;;;;;5009516;28;19937;-71
2023/09/02 02:50:57;;;;;;;;;;;16.60;96.80;;;;;;5009145;28;19913;-71
2023/09/02 02:53:23;;;;;;;;;;;16.60;96.80;;;;;;5008249;28;20009;-71
2023/09/02 02:55:49;;;;;;;;;;;16.60;96.80;;;;;;5009665;28;19920;-71
2023/09/02 02:58:17;;;;;;;;;;;16.60;96.80;;;;;;5007368;28;20324;-71
2023/09/02 03:00:43;;;;;;;;;;;16.60;96.70;;;;;;5009411;28;19914;-71
2023/09/02 03:03:11;;;;;;;;;;;16.60;96.70;;;;;;5009137;28;20671;-71
2023/09/02 03:05:40;;;;;;;;;;;16.60;96.70;;;;;;5009210;28;20000;-71
2023/09/02 03:08:06;;;;;;;;;;;16.60;96.80;;;;;;5007157;28;19914;-71
2023/09/02 03:10:35;;;;;;;;;;;16.60;96.80;;;;;;5008951;28;19909;-71
2023/09/02 03:13:04;;;;;;;;;;;16.60;96.80;;;;;;5008816;28;20318;-71
2023/09/02 03:15:29;;;;;;;;;;;16.60;96.80;;;;;;5009278;28;19913;-71
2023/09/02 03:17:55;;;;;;;;;;;16.60;96.80;;;;;;5009003;28;19920;-71
2023/09/02 03:20:20;;;;;;;;;;;16.60;96.70;;;;;;5008712;28;19917;-70
2023/09/02 03:22:46;;;;;;;;;;;16.60;96.80;;;;;;5008809;28;19917;-70
2023/09/02 03:25:11;;;;;;;;;;;16.60;96.80;;;;;;5008489;28;20301;-71
2023/09/02 03:27:38;;;;;;;;;;;16.60;96.80;;;;;;5008814;28;19910;-70
2023/09/02 03:30:04;;;;;;;;;;;16.60;96.80;;;;;;5007295;28;20381;-70
2023/09/02 03:32:30;;;;;;;;;;;16.60;96.80;;;;;;5007336;28;19913;-70
2023/09/02 03:34:55;;;;;;;;;;;16.60;96.80;;;;;;5008809;28;19914;-70
2023/09/02 03:37:21;;;;;;;;;;;16.60;96.80;;;;;;5008628;28;19940;-71
2023/09/02 03:39:46;;;;;;;;;;;16.60;96.80;;;;;;5008925;28;20428;-71
2023/09/02 03:42:12;;;;;;;;;;;16.60;96.80;;;;;;5007870;28;19913;-71
2023/09/02 03:44:37;;;;;;;;;;;16.60;96.80;;;;;;5007514;28;19959;-71
2023/09/02 03:47:03;;;;;;;;;;;16.60;96.70;;;;;;5007548;28;20385;-71
2023/09/02 03:49:28;;;;;;;;;;;16.60;96.70;;;;;;5008641;28;19928;-71
2023/09/02 03:51:54;;;;;;;;;;;16.60;96.80;;;;;;5001723;28;19929;-70
2023/09/02 03:54:20;;;;;;;;;;;16.60;96.80;;;;;;5008391;28;20442;-70
2023/09/02 03:56:45;;;;;;;;;;;16.60;96.80;;;;;;5008367;28;19929;-70
2023/09/02 03:59:11;;;;;;;;;;;16.50;96.70;;;;;;5006483;28;19917;-71
2023/09/02 04:01:36;;;;;;;;;;;16.60;96.80;;;;;;5008185;28;19910;-71
2023/09/02 04:04:02;;;;;;;;;;;16.50;96.70;;;;;;5007910;28;20350;-71
2023/09/02 04:06:27;;;;;;;;;;;16.50;96.80;;;;;;5007623;28;19913;-71
2023/09/02 04:08:53;;;;;;;;;;;16.50;96.80;;;;;;5007721;28;19913;-71
2023/09/02 04:11:18;;;;;;;;;;;16.50;96.70;;;;;;5007673;28;20661;-71
2023/09/02 04:13:44;;;;;;;;;;;16.50;96.70;;;;;;5008110;28;19913;-71
2023/09/02 04:16:10;;;;;;;;;;;16.50;96.80;;;;;;5007845;28;19944;-71
2023/09/02 04:18:36;;;;;;;;;;;16.50;96.90;;;;;;5008227;28;19914;-71
2023/09/02 04:21:02;;;;;;;;;;;16.50;96.80;;;;;;5006178;28;19931;-71
2023/09/02 04:23:28;;;;;;;;;;;16.50;96.90;;;;;;5008021;28;19920;-71
2023/09/02 04:25:54;;;;;;;;;;;16.50;96.80;;;;;;5007818;28;20460;-71
2023/09/02 04:28:20;;;;;;;;;;;16.50;96.90;;;;;;5007424;28;19921;-70
2023/09/02 04:30:46;;;;;;;;;;;16.50;96.90;;;;;;5007743;28;20260;-70
2023/09/02 04:33:12;;;;;;;;;;;16.40;96.90;;;;;;5008004;28;19940;-70
2023/09/02 04:35:39;;;;;;;;;;;16.50;96.90;;;;;;5008226;28;19910;-71
2023/09/02 04:38:06;;;;;;;;;;;16.50;96.90;;;;;;5006953;28;20343;-71
2023/09/02 04:40:35;;;;;;;;;;;16.40;96.90;;;;;;5007631;28;19944;-71
2023/09/02 04:43:00;;;;;;;;;;;16.40;97.00;;;;;;5007102;28;20096;-71
2023/09/02 04:45:26;;;;;;;;;;;16.40;96.90;;;;;;5007810;28;19968;-71
2023/09/02 04:47:52;;;;;;;;;;;16.40;96.90;;;;;;5007615;28;19992;-71
2023/09/02 04:50:17;;;;;;;;;;;16.40;96.90;;;;;;5006140;28;19914;-71
2023/09/02 04:52:44;;;;;;;;;;;16.40;96.90;;;;;;5007814;28;20342;-71
2023/09/02 04:55:10;;;;;;;;;;;16.40;96.90;;;;;;5007473;28;19914;-71
2023/09/02 04:57:35;;;;;;;;;;;16.40;97.00;;;;;;5008780;28;20430;-71
2023/09/02 05:00:01;;;;;;;;;;;16.40;97.00;;;;;;5011167;28;19918;-71
2023/09/02 05:02:27;;;;;;;;;;;16.40;97.00;;;;;;5011586;28;19949;-71
2023/09/02 05:04:52;;;;;;;;;;;16.40;97.00;;;;;;5011636;28;20011;-71
2023/09/02 05:07:18;;;;;;;;;;;16.40;97.10;;;;;;5010992;28;19913;-71
2023/09/02 05:09:43;;;;;;;;;;;16.40;97.10;;;;;;5002012;28;19920;-71
2023/09/02 05:12:09;;;;;;;;;;;16.40;97.10;;;;;;5010370;28;19920;-71
2023/09/02 05:14:34;;;;;;;;;;;16.40;97.10;;;;;;5011235;28;20003;-71
2023/09/02 05:17:00;;;;;;;;;;;16.40;97.00;;;;;;5010796;28;19913;-71
2023/09/02 05:19:25;;;;;;;;;;;16.40;97.00;;;;;;5011555;28;20032;-71
2023/09/02 05:21:51;;;;;;;;;;;16.40;97.00;;;;;;5011011;28;19955;-71
2023/09/02 05:24:16;;;;;;;;;;;16.40;97.30;;;;;;5009442;28;19937;-70
2023/09/02 05:26:42;;;;;;;;;;;16.40;97.10;;;;;;5011046;28;20535;-71
2023/09/02 05:29:07;;;;;;;;;;;16.40;97.10;;;;;;5010501;28;20341;-71
2023/09/02 05:31:33;;;;;;;;;;;16.40;97.10;;;;;;5010666;28;19937;-71
2023/09/02 05:33:58;;;;;;;;;;;16.40;97.10;;;;;;5010594;28;20016;-71
2023/09/02 05:36:24;;;;;;;;;;;16.40;97.00;;;;;;5010932;28;19965;-71
2023/09/02 05:38:49;;;;;;;;;;;16.40;97.00;;;;;;5010662;28;20389;-71
2023/09/02 05:41:15;;;;;;;;;;;16.40;97.10;;;;;;5010171;28;19920;-70
2023/09/02 05:43:40;;;;;;;;;;;16.50;97.10;;;;;;5010489;28;19925;-70
2023/09/02 05:46:06;;;;;;;;;;;16.40;97.30;;;;;;5010163;28;19910;-71
2023/09/02 05:48:32;;;;;;;;;;;16.40;97.00;;;;;;5008898;28;19917;-71
2023/09/02 05:50:58;;;;;;;;;;;16.50;97.00;;;;;;5010079;28;19923;-71
2023/09/02 05:53:24;;;;;;;;;;;16.50;97.00;;;;;;5010719;28;19913;-70
2023/09/02 05:55:53;;;;;;;;;;;16.50;97.00;;;;;;5010635;28;19952;-70
2023/09/02 05:58:19;;;;;;;;;;;16.50;97.00;;;;;;5005938;28;19925;-71
2023/09/02 06:00:44;;;;;;;;;;;16.50;97.00;;;;;;5009871;28;19913;-71
2023/09/02 06:03:10;;;;;;;;;;;16.50;97.00;;;;;;5009512;28;19914;-71
2023/09/02 06:05:35;;;;;;;;;;;16.50;97.10;;;;;;5009951;28;19920;-71
2023/09/02 06:08:01;;;;;;;;;;;16.50;97.10;;;;;;5002161;28;20008;-71
2023/09/02 06:10:26;;;;;;;;;;;16.50;97.00;;;;;;5009612;28;19996;-71
2023/09/02 06:12:52;;;;;;;;;;;16.60;97.00;;;;;;5010352;28;19956;-70
2023/09/02 06:15:17;;;;;;;;;;;16.60;97.00;;;;;;5017120;28;20514;-70
2023/09/02 06:17:43;;;;;;;;;;;16.60;96.90;;;;;;5010225;28;19920;-70
2023/09/02 06:20:08;;;;;;;;;;;16.60;97.00;;;;;;5009761;28;19919;-70
2023/09/02 06:22:34;;;;;;;;;;;16.70;97.00;;;;;;5009976;28;19917;-70
2023/09/02 06:25:00;;;;;;;;;;;16.70;96.90;;;;;;5009808;28;19940;-70
2023/09/02 06:27:25;;;;;;;;;;;16.70;96.90;;;;;;5010343;28;19964;-70
2023/09/02 06:29:51;;;;;;;;;;;16.70;96.90;;;;;;5010459;28;20362;-70
2023/09/02 06:32:16;;;;;;;;;;;16.70;96.80;;;;;;5009090;28;19945;-71
2023/09/02 06:34:42;;;;;;;;;;;16.70;96.80;;;;;;5010046;28;19909;-71
2023/09/02 06:37:07;;;;;;;;;;;16.80;96.80;;;;;;5009397;28;19937;-71
2023/09/02 06:39:33;;;;;;;;;;;16.80;96.80;;;;;;5009716;28;19909;-70
2023/09/02 06:41:58;;;;;;;;;;;16.80;97.00;;;;;;5009045;28;19917;-70
2023/09/02 06:44:24;;;;;;;;;;;16.80;96.70;;;;;;5009694;28;20012;-70
2023/09/02 06:46:49;;;;;;;;;;;16.80;96.70;;;;;;5009789;28;19913;-70
2023/09/02 06:49:15;;;;;;;;;;;16.90;96.70;;;;;;5007657;28;20605;-70
2023/09/02 06:51:40;;;;;;;;;;;16.90;96.70;;;;;;5009115;28;19918;-70
2023/09/02 06:54:06;;;;;;;;;;;16.90;96.70;;;;;;5008974;28;19936;-71
2023/09/02 06:56:31;;;;;;;;;;;16.90;96.70;;;;;;5009667;28;19917;-70
2023/09/02 06:58:57;;;;;;;;;;;17.00;96.70;;;;;;5009042;28;19909;-70
2023/09/02 07:01:22;;;;;;;;;;;17.00;96.90;;;;;;5009162;28;19920;-70
2023/09/02 07:03:48;;;;;;;;;;;17.00;97.10;;;;;;5008953;28;20495;-70
2023/09/02 07:06:15;;;;;;;;;;;17.00;97.20;;;;;;5007501;28;19924;-71
2023/09/02 07:08:41;;;;;;;;;;;17.10;97.40;;;;;;5009349;28;19913;-70
2023/09/02 07:11:09;;;;;;;;;;;17.10;97.10;;;;;;5008602;28;19909;-70
2023/09/02 07:13:35;;;;;;;;;;;17.10;97.00;;;;;;5008977;28;19959;-70
2023/09/02 07:16:02;;;;;;;;;;;17.20;97.00;;;;;;5007406;28;19921;-70
2023/09/02 07:18:28;;;;;;;;;;;17.20;96.80;;;;;;5009542;28;20000;-70
2023/09/02 07:21:00;;;;;;;;;;;17.30;96.80;;;;;;5008096;28;20001;-70
2023/09/02 07:23:26;;;;;;;;;;;17.30;96.70;;;;;;5001985;28;19917;-70
2023/09/02 07:25:52;;;;;;;;;;;17.30;96.50;;;;;;5009164;28;20227;-70
2023/09/02 07:28:18;;;;;;;;;;;17.40;96.70;;;;;;5008536;28;19960;-70
2023/09/02 07:30:43;;;;;;;;;;;17.40;96.50;;;;;;5008517;28;19925;-70
2023/09/02 07:33:09;;;;;;;;;;;17.40;96.50;;;;;;5008616;28;19918;-71
2023/09/02 07:35:37;;;;;;;;;;;17.40;96.40;;;;;;5008760;28;19918;-71
2023/09/02 07:38:03;;;;;;;;;;;17.50;96.40;;;;;;5008427;28;19909;-70
2023/09/02 07:40:29;;;;;;;;;;;17.50;96.50;;;;;;5008402;28;19914;-70
2023/09/02 07:42:54;;;;;;;;;;;17.60;96.50;;;;;;5008519;28;19923;-70
2023/09/02 07:45:20;;;;;;;;;;;17.50;96.40;;;;;;5008679;28;20537;-70
2023/09/02 07:47:45;;;;;;;;;;;17.60;96.40;;;;;;5008856;28;19925;-70
2023/09/02 07:50:11;;;;;;;;;;;17.60;96.30;;;;;;5006892;28;19924;-70
2023/09/02 07:52:37;;;;;;;;;;;17.60;96.40;;;;;;5008616;28;19917;-70
2023/09/02 07:55:03;;;;;;;;;;;17.70;96.40;;;;;;5008223;28;19976;-70
2023/09/02 07:57:30;;;;;;;;;;;17.70;96.30;;;;;;5005075;28;20263;-70
2023/09/02 07:59:56;;;;;;;;;;;17.80;96.20;;;;;;5005226;28;20016;-70
2023/09/02 08:02:22;;;;;;;;;;;17.80;96.10;;;;;;5007935;28;20004;-70
2023/09/02 08:04:47;;;;;;;;;;;17.80;96.10;;;;;;5008441;28;19918;-70
2023/09/02 08:07:13;;;;;;;;;;;17.90;95.90;;;;;;5006719;28;19945;-70
2023/09/02 08:09:38;;;;;;;;;;;17.90;95.90;;;;;;5008365;28;19910;-70
2023/09/02 08:12:04;;;;;;;;;;;17.90;96.00;;;;;;5006238;28;19940;-70
2023/09/02 08:14:29;;;;;;;;;;;17.90;95.90;;;;;;5008252;28;19968;-70
2023/09/02 08:16:55;;;;;;;;;;;18.00;95.80;;;;;;5007965;28;20544;-70
2023/09/02 08:19:20;;;;;;;;;;;18.00;95.80;;;;;;5007823;28;20004;-70
2023/09/02 08:21:46;;;;;;;;;;;18.00;95.80;;;;;;5007945;28;19974;-70
2023/09/02 08:24:11;;;;;;;;;;;18.10;95.80;;;;;;5007469;28;20488;-71
2023/09/02 08:26:37;;;;;;;;;;;18.10;95.70;;;;;;5008071;28;19956;-71
2023/09/02 08:29:02;;;;;;;;;;;18.20;95.80;;;;;;5007683;28;19913;-71
2023/09/02 08:31:28;;;;;;;;;;;18.20;96.00;;;;;;5007703;28;19914;-70
2023/09/02 08:33:53;;;;;;;;;;;18.20;95.80;;;;;;5007581;28;19914;-70
2023/09/02 08:36:19;;;;;;;;;;;18.30;95.70;;;;;;5007176;28;19917;-71
2023/09/02 08:38:44;;;;;;;;;;;18.30;95.70;;;;;;5007932;28;19953;-70
2023/09/02 08:41:16;;;;;;;;;;;18.30;95.70;;;;;;5007317;28;19915;-70
2023/09/02 08:43:41;;;;;;;;;;;18.40;95.50;;;;;;5007685;28;19967;-70
2023/09/02 08:46:10;;;;;;;;;;;18.40;95.70;;;;;;5007684;28;19914;-70
2023/09/02 08:48:37;;;;;;;;;;;18.50;95.60;;;;;;5006644;28;19953;-70
2023/09/02 08:51:03;;;;;;;;;;;18.50;95.60;;;;;;5005810;28;19914;-70
2023/09/02 08:53:29;;;;;;;;;;;18.50;95.40;;;;;;5007905;28;19913;-70
2023/09/02 08:55:55;;;;;;;;;;;18.60;95.80;;;;;;5007850;28;19914;-70
2023/09/02 08:58:21;;;;;;;;;;;18.60;95.40;;;;;;4999834;28;19968;-70
2023/09/02 09:00:47;;;;;;;;;;;18.60;95.40;;;;;;5007367;28;19913;-70
2023/09/02 09:03:13;;;;;;;;;;;18.70;95.20;;;;;;5007258;28;20009;-70
2023/09/02 09:05:40;;;;;;;;;;;18.70;95.30;;;;;;5005697;28;19909;-70
2023/09/02 09:08:06;;;;;;;;;;;18.70;95.50;;;;;;5005596;28;19925;-70
2023/09/02 09:10:34;;;;;;;;;;;18.80;95.40;;;;;;5006135;28;19924;-70
2023/09/02 09:13:01;;;;;;;;;;;18.80;95.20;;;;;;5007271;28;19909;-70
2023/09/02 09:15:27;;;;;;;;;;;18.90;95.30;;;;;;5007902;28;19917;-70
2023/09/02 09:17:53;;;;;;;;;;;18.90;95.30;;;;;;5006677;28;20248;-70
2023/09/02 09:20:18;;;;;;;;;;;19.00;95.20;;;;;;5005922;28;20462;-70
2023/09/02 09:22:44;;;;;;;;;;;19.00;95.00;;;;;;5006153;28;19920;-70
2023/09/02 09:25:10;;;;;;;;;;;19.10;95.00;;;;;;5007159;28;19918;-70
2023/09/02 09:27:36;;;;;;;;;;;19.20;94.90;;;;;;5007353;28;19917;-70
2023/09/02 09:30:02;;;;;;;;;;;19.20;94.70;;;;;;5007210;28;19922;-70
2023/09/02 09:32:27;;;;;;;;;;;19.30;94.70;;;;;;5005755;28;19909;-70
2023/09/02 09:34:53;;;;;;;;;;;19.40;94.70;;;;;;5006317;28;19936;-71
2023/09/02 09:37:18;;;;;;;;;;;19.40;94.60;;;;;;5006876;28;19988;-71
2023/09/02 09:39:45;;;;;;;;;;;19.50;94.60;;;;;;5007296;28;19972;-70
2023/09/02 09:42:12;;;;;;;;;;;19.50;94.60;;;;;;5006641;28;20008;-70
2023/09/02 09:44:54;;;;;;;;;;;19.60;94.60;;;;;;5008267;28;19921;-70
2023/09/02 09:47:20;;;;;;;;;;;19.60;94.30;;;;;;5009108;28;19914;-70
2023/09/02 09:49:49;;;;;;;;;;;19.70;94.60;;;;;;5010876;28;19972;-70
2023/09/02 09:52:15;;;;;;;;;;;19.70;94.50;;;;;;5009901;28;19964;-70
2023/09/02 09:54:40;;;;;;;;;;;19.80;94.20;;;;;;5009166;28;20433;-70
2023/09/02 09:57:07;;;;;;;;;;;19.80;94.10;;;;;;5010137;28;19940;-70
2023/09/02 09:59:34;;;;;;;;;;;19.80;94.30;;;;;;5008747;28;19971;-70
2023/09/02 10:02:04;;;;;;;;;;;19.90;94.20;;;;;;5009517;28;20420;-70
2023/09/02 10:04:30;;;;;;;;;;;19.90;94.20;;;;;;5010491;28;19924;-70
2023/09/02 10:07:02;;;;;;;;;;;19.90;94.20;;;;;;5008923;28;19909;-70
2023/09/02 10:09:40;;;;;;;;;;;19.90;94.30;;;;;;5003073;28;19916;-70
2023/09/02 10:12:09;;;;;;;;;;;20.00;94.20;;;;;;5009764;28;19956;-70
2023/09/02 10:14:35;;;;;;;;;;;20.00;94.20;;;;;;5010145;28;19929;-70
2023/09/02 10:17:00;;;;;;;;;;;20.10;94.20;;;;;;5010093;28;19913;-70
2023/09/02 10:19:26;;;;;;;;;;;20.20;94.10;;;;;;5010615;28;19940;-70
2023/09/02 10:21:52;;;;;;;;;;;20.20;94.10;;;;;;5008899;28;20028;-70
2023/09/02 10:24:18;;;;;;;;;;;20.20;94.30;;;;;;5008473;28;20329;-70
2023/09/02 10:26:45;;;;;;;;;;;20.20;94.20;;;;;;5010431;28;19913;-70
2023/09/02 10:29:12;;;;;;;;;;;20.30;94.10;;;;;;5009401;28;19956;-70
2023/09/02 10:31:40;;;;;;;;;;;20.30;94.60;;;;;;5009846;28;20309;-70
2023/09/02 10:34:27;;;;;;;;;;;20.30;94.20;;;;;;5009669;28;19913;-70
2023/09/02 10:36:55;;;;;;;;;;;20.40;94.20;;;;;;5010136;28;20016;-70
2023/09/02 10:39:46;;;;;;;;;;;20.50;94.30;;;;;;5009421;28;19914;-70
2023/09/02 10:42:13;;;;;;;;;;;20.50;94.10;;;;;;5009228;28;19991;-70
2023/09/02 10:44:39;;;;;;;;;;;20.50;94.00;;;;;;5009944;28;19924;-71
2023/09/02 10:47:05;;;;;;;;;;;20.60;93.90;;;;;;5009278;28;19921;-70
2023/09/02 10:49:31;;;;;;;;;;;20.70;93.90;;;;;;5009795;28;19917;-70
2023/09/02 10:51:57;;;;;;;;;;;20.70;93.90;;;;;;5008143;28;20381;-70
2023/09/02 10:54:22;;;;;;;;;;;20.80;93.70;;;;;;5001682;28;19910;-70
2023/09/02 10:56:50;;;;;;;;;;;20.80;93.60;;;;;;5007958;28;19920;-70
2023/09/02 10:59:31;;;;;;;;;;;20.90;93.90;;;;;;5009010;28;19995;-70
2023/09/02 11:01:57;;;;;;;;;;;20.90;93.70;;;;;;5009351;28;19961;-70
2023/09/02 11:04:51;;;;;;;;;;;21.00;93.70;;;;;;5007828;28;19956;-70
2023/09/02 11:07:20;;;;;;;;;;;21.00;93.90;;;;;;4998663;28;19960;-71
2023/09/02 11:09:49;;;;;;;;;;;21.00;93.80;;;;;;5009054;28;19921;-71
2023/09/02 11:12:14;;;;;;;;;;;20.90;93.70;;;;;;5008441;28;19918;-71
2023/09/02 11:14:40;;;;;;;;;;;21.00;93.70;;;;;;5009235;28;19933;-70
2023/09/02 11:17:24;;;;;;;;;;;21.10;93.80;;;;;;5001986;28;19996;-70
2023/09/02 11:19:56;;;;;;;;;;;21.10;93.90;;;;;;5009219;28;19913;-70
2023/09/02 11:22:41;;;;;;;;;;;21.20;93.80;;;;;;5008476;28;19963;-70
2023/09/02 11:25:08;;;;;;;;;;;21.20;93.70;;;;;;5008335;28;19924;-70
2023/09/02 11:27:43;;;;;;;;;;;21.20;93.70;;;;;;5008938;28;19967;-70
2023/09/02 11:30:09;;;;;;;;;;;21.30;93.60;;;;;;5008510;28;19913;-70
2023/09/02 11:32:44;;;;;;;;;;;21.30;93.70;;;;;;5008866;28;20452;-70
2023/09/02 11:35:14;;;;;;;;;;;21.30;93.80;;;;;;5008283;28;20001;-70
2023/09/02 11:37:40;;;;;;;;;;;21.30;93.80;;;;;;5008722;28;19909;-70
2023/09/02 11:40:15;;;;;;;;;;;21.40;93.60;;;;;;5008604;28;19919;-70
2023/09/02 11:43:00;;;;;;;;;;;21.50;93.60;;;;;;5008382;28;19921;-70
2023/09/02 11:45:27;;;;;;;;;;;21.50;93.60;;;;;;5008990;28;19917;-70
2023/09/02 11:47:53;;;;;;;;;;;21.50;93.70;;;;;;5008698;28;20310;-70
2023/09/02 11:50:19;;;;;;;;;;;21.60;93.60;;;;;;5006737;28;19922;-70
2023/09/02 11:52:46;;;;;;;;;;;21.60;93.50;;;;;;5008319;28;20278;-70
2023/09/02 11:55:15;;;;;;;;;;;21.70;93.60;;;;;;5008317;28;19945;-70
2023/09/02 11:57:41;;;;;;;;;;;21.70;93.50;;;;;;5008510;28;19917;-70
2023/09/02 12:00:07;;;;;;;;;;;21.80;93.60;;;;;;5003454;28;20482;-70
2023/09/02 12:02:39;;;;;;;;;;;21.80;93.60;;;;;;5008371;28;19916;-70
2023/09/02 12:05:04;;;;;;;;;;;21.80;93.40;;;;;;5008115;28;19989;-70
2023/09/02 12:07:31;;;;;;;;;;;21.90;93.40;;;;;;5006004;28;19921;-70
2023/09/02 12:09:57;;;;;;;;;;;21.90;93.30;;;;;;5008369;28;20616;-70
2023/09/02 12:12:22;;;;;;;;;;;22.00;93.30;;;;;;5007557;28;20008;-70
2023/09/02 12:14:48;;;;;;;;;;;22.00;93.30;;;;;;5008085;28;20537;-70
2023/09/02 12:17:13;;;;;;;;;;;22.00;93.30;;;;;;5007936;28;19914;-70
2023/09/02 12:19:39;;;;;;;;;;;22.00;93.30;;;;;;5008342;28;19917;-70
2023/09/02 12:22:05;;;;;;;;;;;22.10;93.30;;;;;;5007507;28;19913;-70
2023/09/02 12:24:31;;;;;;;;;;;22.10;93.20;;;;;;5006410;28;20409;-70
2023/09/02 12:26:57;;;;;;;;;;;22.20;93.10;;;;;;5008105;28;19960;-70
2023/09/02 12:29:24;;;;;;;;;;;22.30;93.20;;;;;;5007764;28;19927;-70
2023/09/02 12:31:50;;;;;;;;;;;22.30;93.10;;;;;;5007580;28;19920;-70
2023/09/02 12:34:15;;;;;;;;;;;22.30;92.80;;;;;;5006375;28;20052;-70
2023/09/02 12:36:41;;;;;;;;;;;22.40;92.80;;;;;;5008074;28;20016;-70
2023/09/02 12:39:06;;;;;;;;;;;22.40;92.80;;;;;;5006258;28;20432;-71
2023/09/02 12:41:38;;;;;;;;;;;22.40;92.90;;;;;;5007838;28;19922;-70
2023/09/02 12:44:30;;;;;;;;;;;22.30;93.00;;;;;;5007758;28;19956;-70
2023/09/02 12:46:55;;;;;;;;;;;22.30;93.00;;;;;;5005676;28;20043;-70
2023/09/02 12:49:21;;;;;;;;;;;22.30;93.20;;;;;;5006851;28;20012;-72
2023/09/02 12:51:46;;;;;;;;;;;22.30;93.20;;;;;;5006773;28;19913;-71
2023/09/02 12:54:12;;;;;;;;;;;22.20;93.50;;;;;;5007340;28;19914;-71
2023/09/02 12:56:38;;;;;;;;;;;22.20;93.40;;;;;;5007507;28;19925;-71
2023/09/02 12:59:04;;;;;;;;;;;22.20;93.50;;;;;;5007504;28;19914;-71
2023/09/02 13:01:30;;;;;;;;;;;22.20;93.60;;;;;;5007645;28;20543;-71
2023/09/02 13:03:57;;;;;;;;;;;22.20;93.60;;;;;;5007796;28;19917;-71
2023/09/02 13:06:24;;;;;;;;;;;22.20;93.60;;;;;;5007131;28;19910;-71
2023/09/02 13:08:49;;;;;;;;;;;22.20;93.60;;;;;;5007502;28;19913;-71
2023/09/02 13:11:15;;;;;;;;;;;22.20;93.30;;;;;;5005609;28;19985;-72
2023/09/02 13:13:40;;;;;;;;;;;22.30;93.30;;;;;;5007135;28;20009;-71
2023/09/02 13:16:06;;;;;;;;;;;22.30;93.30;;;;;;5006992;28;19918;-71
2023/09/02 13:18:31;;;;;;;;;;;22.40;93.20;;;;;;5008781;28;19952;-71
2023/09/02 13:21:00;;;;;;;;;;;22.40;93.20;;;;;;5011170;28;20290;-71
2023/09/02 13:23:26;;;;;;;;;;;22.50;93.30;;;;;;5003541;28;20059;-71
2023/09/02 13:25:51;;;;;;;;;;;22.50;93.00;;;;;;5011381;28;20413;-72
2023/09/02 13:28:17;;;;;;;;;;;22.60;93.10;;;;;;5010816;28;19914;-71
2023/09/02 13:30:45;;;;;;;;;;;22.60;93.00;;;;;;5010925;28;20506;-71
2023/09/02 13:33:10;;;;;;;;;;;22.70;93.00;;;;;;5009439;28;20621;-71
2023/09/02 13:35:36;;;;;;;;;;;22.70;92.90;;;;;;5011121;28;20008;-70
2023/09/02 13:38:01;;;;;;;;;;;22.80;92.90;;;;;;5010752;28;19909;-70
2023/09/02 13:40:31;;;;;;;;;;;22.90;92.80;;;;;;5010932;28;20020;-70
2023/09/02 13:42:59;;;;;;;;;;;22.90;92.70;;;;;;5010634;28;19925;-70
2023/09/02 13:45:28;;;;;;;;;;;22.90;92.70;;;;;;5010652;28;19921;-70
2023/09/02 13:47:53;;;;;;;;;;;23.00;92.70;;;;;;5010682;28;19956;-70
2023/09/02 13:50:19;;;;;;;;;;;23.10;92.70;;;;;;5010355;28;20367;-70
2023/09/02 13:52:50;;;;;;;;;;;23.10;92.50;;;;;;5010562;28;19952;-70
2023/09/02 13:55:16;;;;;;;;;;;23.20;92.50;;;;;;5006894;28;19917;-70
2023/09/02 13:57:43;;;;;;;;;;;23.20;92.60;;;;;;5010729;28;20335;-70
2023/09/02 14:00:28;;;;;;;;;;;23.20;92.70;;;;;;5010221;28;19920;-71
2023/09/02 14:02:55;;;;;;;;;;;23.20;92.60;;;;;;5003135;28;19935;-71
2023/09/02 14:05:21;;;;;;;;;;;23.10;92.70;;;;;;5010446;28;22155;-71
2023/09/02 14:07:48;;;;;;;;;;;23.00;93.00;;;;;;5008582;28;20370;-71
2023/09/02 14:10:14;;;;;;;;;;;23.00;93.10;;;;;;5008471;28;19913;-71
2023/09/02 14:12:39;;;;;;;;;;;23.00;93.00;;;;;;5010198;28;20526;-71
2023/09/02 14:15:05;;;;;;;;;;;23.10;93.20;;;;;;5008791;28;19928;-71